Time;durP1;ratioP1;P1;durP2;ratioP2;P2;SDS_P1;SDS_P2;PMS_P1;PMS_P2;Temp;Humidity;BMP_temperature;BMP_pressure;BME280_temperature;BME280_humidity;BME280_pressure;Samples;Min_cycle;Max_cycle;Signal;HPM_P1;HPM_P2
2022/01/28 00:01:20;;;;;;;2.42;1.67;;;;;;;;;;5069449;28;20028;-70
2022/01/28 00:03:45;;;;;;;1.60;1.50;;;;;;;;;;5070194;28;20020;-71
2022/01/28 00:06:12;;;;;;;1.80;1.70;;;;;;;;;;5050024;28;20715;-71
2022/01/28 00:08:37;;;;;;;6.03;1.63;;;;;;;;;;5051703;28;20025;-70
2022/01/28 00:11:03;;;;;;;1.75;1.63;;;;;;;;;;5069747;28;20035;-70
2022/01/28 00:13:36;;;;;;;1.52;1.42;;;;;;;;;;5069620;28;20139;-70
2022/01/28 00:18:44;;;;;;;1.58;1.48;;;;;;;;;;5068082;28;20031;-69
2022/01/28 00:40:17;;;;;;;1.75;1.65;;;;;;;;;;5068962;28;20085;-70
2022/01/28 00:42:42;;;;;;;2.33;2.00;;;;;;;;;;5069396;28;20032;-70
2022/01/28 00:45:08;;;;;;;1.85;1.75;;;;;;;;;;5068851;28;20088;-70
2022/01/28 00:47:33;;;;;;;4.15;2.30;;;;;;;;;;5067592;28;20060;-71
2022/01/28 00:49:58;;;;;;;3.63;2.40;;;;;;;;;;5068566;28;20050;-69
2022/01/28 00:52:24;;;;;;;2.30;2.15;;;;;;;;;;5069310;28;20025;-68
2022/01/28 00:54:49;;;;;;;2.53;2.33;;;;;;;;;;5067991;28;20066;-71
2022/01/28 00:57:14;;;;;;;2.30;2.10;;;;;;;;;;5068990;28;20492;-70
2022/01/28 00:59:40;;;;;;;2.75;2.40;;;;;;;;;;5065590;28;20251;-69
2022/01/28 01:02:06;;;;;;;2.67;2.13;;;;;;;;;;5067784;28;20064;-70
2022/01/28 01:04:31;;;;;;;2.42;2.10;;;;;;;;;;5067367;28;20024;-71
2022/01/28 01:06:56;;;;;;;2.70;2.17;;;;;;;;;;5068387;28;20043;-68
2022/01/28 01:09:21;;;;;;;2.30;2.10;;;;;;;;;;5067002;28;20036;-67
2022/01/28 01:11:47;;;;;;;2.00;1.90;;;;;;;;;;5068389;28;20016;-68
2022/01/28 01:14:12;;;;;;;1.83;1.73;;;;;;;;;;5070015;28;20549;-68
2022/01/28 01:16:58;;;;;;;1.85;1.75;;;;;;;;;;5072947;28;20012;-70
2022/01/28 01:19:25;;;;;;;2.20;1.85;;;;;;;;;;5071527;28;20229;-70
2022/01/28 01:21:56;;;;;;;4.68;2.17;;;;;;;;;;5072484;28;20507;-67
2022/01/28 01:24:24;;;;;;;1.77;1.67;;;;;;;;;;5071790;28;20024;-67
2022/01/28 01:26:49;;;;;;;2.38;2.17;;;;;;;;;;5071702;28;20090;-68
2022/01/28 01:29:17;;;;;;;2.50;2.30;;;;;;;;;;5049391;28;20016;-70
2022/01/28 01:31:43;;;;;;;2.78;2.28;;;;;;;;;;5072436;28;20586;-70
2022/01/28 01:36:37;;;;;;;2.47;2.25;;;;;;;;;;5051085;28;20056;-70
2022/01/28 01:39:03;;;;;;;2.95;2.45;;;;;;;;;;5070649;28;20072;-70
2022/01/28 01:41:35;;;;;;;2.80;2.17;;;;;;;;;;5052481;28;20043;-68
2022/01/28 01:54:18;;;;;;;3.25;2.88;;;;;;;;;;5071310;28;20101;-70
2022/01/28 01:56:44;;;;;;;3.78;3.25;;;;;;;;;;5066457;28;20032;-71
2022/01/28 01:59:09;;;;;;;4.82;3.42;;;;;;;;;;5052829;28;20017;-69
2022/01/28 02:01:35;;;;;;;4.22;3.83;;;;;;;;;;5067911;28;20035;-70
2022/01/28 02:04:00;;;;;;;5.82;3.70;;;;;;;;;;5068994;28;20028;-70
2022/01/28 02:06:26;;;;;;;8.25;3.50;;;;;;;;;;5071541;28;20043;-70
2022/01/28 02:08:51;;;;;;;5.78;3.58;;;;;;;;;;5070617;28;20425;-70
2022/01/28 02:11:16;;;;;;;6.05;3.72;;;;;;;;;;5067875;28;20020;-70
2022/01/28 02:13:46;;;;;;;5.57;4.00;;;;;;;;;;5049340;28;20353;-69
2022/01/28 02:16:11;;;;;;;5.68;3.67;;;;;;;;;;5070952;28;20032;-69
2022/01/28 02:18:37;;;;;;;9.18;4.35;;;;;;;;;;5071246;28;20009;-69
2022/01/28 02:21:08;;;;;;;7.30;4.03;;;;;;;;;;5069130;28;20031;-69
2022/01/28 02:23:34;;;;;;;9.57;4.47;;;;;;;;;;5070354;28;20103;-70
2022/01/28 02:26:00;;;;;;;5.00;4.15;;;;;;;;;;5068580;28;20115;-70
2022/01/28 02:28:28;;;;;;;5.20;3.90;;;;;;;;;;5069437;28;20095;-70
2022/01/28 02:30:54;;;;;;;9.05;4.60;;;;;;;;;;5067561;28;20033;-71
2022/01/28 02:33:22;;;;;;;6.05;4.30;;;;;;;;;;5066924;28;20202;-69
2022/01/28 02:35:48;;;;;;;7.57;4.45;;;;;;;;;;5068224;28;20052;-70
2022/01/28 02:38:15;;;;;;;5.63;4.43;;;;;;;;;;5051779;28;20071;-69
2022/01/28 02:40:44;;;;;;;6.10;4.30;;;;;;;;;;5067675;28;20078;-70
2022/01/28 02:45:48;;;;;;;8.27;5.05;;;;;;;;;;5069174;28;20032;-70
2022/01/28 02:48:24;;;;;;;8.18;4.72;;;;;;;;;;5048945;28;20009;-70
2022/01/28 02:53:27;;;;;;;7.55;5.53;;;;;;;;;;5069355;28;20478;-69
2022/01/28 02:56:02;;;;;;;5.65;4.78;;;;;;;;;;5068193;28;20414;-69
2022/01/28 02:58:27;;;;;;;5.78;4.68;;;;;;;;;;5067696;28;20016;-68
2022/01/28 03:00:54;;;;;;;7.15;5.20;;;;;;;;;;5050915;28;20032;-69
2022/01/28 03:03:22;;;;;;;8.15;4.35;;;;;;;;;;5051181;28;20024;-69
2022/01/28 03:05:47;;;;;;;8.18;5.00;;;;;;;;;;5067839;28;20052;-68
2022/01/28 03:08:13;;;;;;;6.53;5.32;;;;;;;;;;5067592;28;20426;-69
2022/01/28 03:15:33;;;;;;;9.93;5.95;;;;;;;;;;5069555;28;20414;-69
2022/01/28 03:18:15;;;;;;;8.77;5.82;;;;;;;;;;5048700;28;20023;-68
2022/01/28 03:20:55;;;;;;;8.63;5.57;;;;;;;;;;5068397;28;20036;-69
2022/01/28 03:23:20;;;;;;;7.28;4.78;;;;;;;;;;5067158;28;20056;-69
2022/01/28 03:25:47;;;;;;;9.35;5.15;;;;;;;;;;5065450;28;20080;-68
2022/01/28 03:28:14;;;;;;;7.75;5.40;;;;;;;;;;5065964;28;20296;-68
2022/01/28 03:30:39;;;;;;;7.97;5.35;;;;;;;;;;5066703;28;20131;-68
2022/01/28 03:33:04;;;;;;;9.23;5.75;;;;;;;;;;5067172;28;20101;-69
2022/01/28 03:35:30;;;;;;;9.32;5.53;;;;;;;;;;5069757;28;20027;-68
2022/01/28 03:38:03;;;;;;;7.75;5.63;;;;;;;;;;5066388;28;20036;-69
2022/01/28 03:40:35;;;;;;;8.70;5.50;;;;;;;;;;5067698;28;20531;-68
2022/01/28 03:43:01;;;;;;;9.43;5.88;;;;;;;;;;5068928;28;20386;-68
2022/01/28 03:45:26;;;;;;;9.70;6.18;;;;;;;;;;5075138;22;20044;-69
2022/01/28 03:47:51;;;;;;;7.60;5.75;;;;;;;;;;5050908;28;20386;-70
2022/01/28 03:50:16;;;;;;;8.02;5.95;;;;;;;;;;5049955;28;20040;-69
2022/01/28 03:52:42;;;;;;;9.02;5.45;;;;;;;;;;5032979;28;20029;-70
2022/01/28 03:55:08;;;;;;;8.90;5.80;;;;;;;;;;5048896;28;20375;-70
2022/01/28 03:57:33;;;;;;;10.75;5.75;;;;;;;;;;5063019;28;20024;-69
2022/01/28 03:59:58;;;;;;;10.63;6.03;;;;;;;;;;5070886;28;20027;-70
2022/01/28 04:02:28;;;;;;;7.60;5.70;;;;;;;;;;5054029;28;20045;-70
2022/01/28 04:12:49;;;;;;;12.13;5.95;;;;;;;;;;5044107;28;20398;-72
2022/01/28 04:15:37;;;;;;;10.18;6.18;;;;;;;;;;5060593;28;20024;-72
2022/01/28 04:18:03;;;;;;;7.82;5.82;;;;;;;;;;5036388;28;20572;-72
2022/01/28 04:20:30;;;;;;;8.10;6.03;;;;;;;;;;5049189;28;20029;-72
2022/01/28 04:22:56;;;;;;;9.68;6.00;;;;;;;;;;5050504;28;20028;-72
2022/01/28 04:25:21;;;;;;;9.30;5.85;;;;;;;;;;5051087;28;20422;-71
2022/01/28 04:27:46;;;;;;;11.00;6.47;;;;;;;;;;5046363;28;20062;-72
2022/01/28 04:30:12;;;;;;;9.98;6.10;;;;;;;;;;5058924;28;20048;-71
2022/01/28 04:32:38;;;;;;;10.77;6.05;;;;;;;;;;5062434;28;20105;-72
2022/01/28 04:35:04;;;;;;;9.68;6.15;;;;;;;;;;5052237;28;20021;-72
2022/01/28 04:37:39;;;;;;;13.00;6.45;;;;;;;;;;5032245;28;20044;-71
2022/01/28 04:42:46;;;;;;;13.98;6.70;;;;;;;;;;5037109;28;20029;-71
2022/01/28 04:47:46;;;;;;;9.60;6.18;;;;;;;;;;5051677;28;20021;-71
2022/01/28 04:55:32;;;;;;;10.43;6.38;;;;;;;;;;5064788;28;20116;-71
2022/01/28 05:10:55;;;;;;;12.38;6.60;;;;;;;;;;5046126;28;20449;-70
2022/01/28 05:13:55;;;;;;;11.60;6.50;;;;;;;;;;5052212;28;20048;-71
2022/01/28 05:26:59;;;;;;;8.75;5.72;;;;;;;;;;5050419;28;20120;-71
2022/01/28 05:29:24;;;;;;;12.20;6.10;;;;;;;;;;5043423;28;20025;-71
2022/01/28 05:31:50;;;;;;;10.13;6.00;;;;;;;;;;5053097;28;20312;-71
2022/01/28 05:34:15;;;;;;;12.80;6.22;;;;;;;;;;5038030;28;20037;-70
2022/01/28 05:36:40;;;;;;;11.73;5.95;;;;;;;;;;5044863;28;20036;-72
2022/01/28 05:39:06;;;;;;;10.63;5.95;;;;;;;;;;5062194;28;20078;-70
2022/01/28 05:41:32;;;;;;;12.43;5.80;;;;;;;;;;5054963;28;20029;-70
2022/01/28 05:43:57;;;;;;;11.10;6.43;;;;;;;;;;5046599;28;20021;-71
2022/01/28 05:46:22;;;;;;;8.88;5.43;;;;;;;;;;5060201;28;20036;-71
2022/01/28 05:48:48;;;;;;;9.10;6.00;;;;;;;;;;5037084;28;20021;-70
2022/01/28 05:51:13;;;;;;;10.57;6.32;;;;;;;;;;5035174;28;20040;-71
2022/01/28 05:53:38;;;;;;;8.32;5.43;;;;;;;;;;5055828;28;20021;-71
2022/01/28 05:56:04;;;;;;;8.25;5.65;;;;;;;;;;5053417;28;20028;-71
2022/01/28 05:58:29;;;;;;;9.27;5.53;;;;;;;;;;5038222;28;20020;-70
2022/01/28 06:00:54;;;;;;;7.57;5.45;;;;;;;;;;5040627;28;20434;-70
2022/01/28 06:03:20;;;;;;;12.75;6.47;;;;;;;;;;5045195;28;20459;-70
2022/01/28 06:05:47;;;;;;;11.02;5.85;;;;;;;;;;5063988;28;20024;-70
2022/01/28 06:08:12;;;;;;;12.23;6.28;;;;;;;;;;5059931;28;20025;-71
2022/01/28 06:10:38;;;;;;;6.75;5.03;;;;;;;;;;5068046;28;20024;-71
2022/01/28 06:13:05;;;;;;;9.25;4.97;;;;;;;;;;5071301;28;20027;-70
2022/01/28 06:15:30;;;;;;;10.40;6.05;;;;;;;;;;5039076;28;20039;-71
2022/01/28 06:17:55;;;;;;;13.63;6.10;;;;;;;;;;5040562;28;20037;-71
2022/01/28 06:20:21;;;;;;;8.70;5.45;;;;;;;;;;5054261;28;20112;-71
2022/01/28 06:22:46;;;;;;;13.20;5.60;;;;;;;;;;5063425;28;20112;-70
2022/01/28 06:25:13;;;;;;;7.45;5.53;;;;;;;;;;5052223;28;20053;-70
2022/01/28 06:27:39;;;;;;;8.98;5.65;;;;;;;;;;5041059;28;20024;-71
2022/01/28 06:30:05;;;;;;;8.80;5.35;;;;;;;;;;5044488;28;20498;-71
2022/01/28 06:32:31;;;;;;;11.60;5.93;;;;;;;;;;5038710;28;20064;-70
2022/01/28 06:34:57;;;;;;;8.57;5.47;;;;;;;;;;5036502;28;20040;-70
2022/01/28 06:37:22;;;;;;;9.73;5.55;;;;;;;;;;5043024;28;20047;-71
2022/01/28 06:39:47;;;;;;;9.40;6.07;;;;;;;;;;5059906;28;20394;-70
2022/01/28 06:42:13;;;;;;;8.35;5.40;;;;;;;;;;5059226;28;20033;-71
2022/01/28 06:44:39;;;;;;;9.43;5.07;;;;;;;;;;5062331;28;20051;-71
2022/01/28 06:47:04;;;;;;;9.38;5.53;;;;;;;;;;5042736;28;20128;-71
2022/01/28 06:49:30;;;;;;;8.48;5.80;;;;;;;;;;5054793;28;20029;-70
2022/01/28 06:51:55;;;;;;;7.57;5.35;;;;;;;;;;5044689;28;20036;-70
2022/01/28 06:54:20;;;;;;;9.60;4.85;;;;;;;;;;5056010;28;20033;-70
2022/01/28 06:56:45;;;;;;;8.52;4.90;;;;;;;;;;5054691;28;20108;-70
2022/01/28 06:59:11;;;;;;;9.93;5.43;;;;;;;;;;5037505;28;20425;-70
2022/01/28 07:01:37;;;;;;;6.90;5.18;;;;;;;;;;5041114;28;20636;-70
2022/01/28 07:04:02;;;;;;;9.75;5.07;;;;;;;;;;5067027;28;20498;-70
2022/01/28 07:06:27;;;;;;;9.05;5.20;;;;;;;;;;5058920;28;20040;-71
2022/01/28 07:08:53;;;;;;;12.35;5.03;;;;;;;;;;5061938;28;20021;-70
2022/01/28 07:11:18;;;;;;;12.02;4.85;;;;;;;;;;5051315;28;20028;-70
2022/01/28 07:13:44;;;;;;;10.43;4.65;;;;;;;;;;5057340;28;20024;-70
2022/01/28 07:16:09;;;;;;;7.47;4.70;;;;;;;;;;5029832;28;20063;-70
2022/01/28 07:18:34;;;;;;;5.45;4.00;;;;;;;;;;5057817;28;20087;-70
2022/01/28 07:21:00;;;;;;;7.07;4.38;;;;;;;;;;5040814;28;20490;-70
2022/01/28 07:23:25;;;;;;;7.35;3.88;;;;;;;;;;5030329;28;20028;-70
2022/01/28 07:25:50;;;;;;;5.50;3.83;;;;;;;;;;5064207;28;20021;-70
2022/01/28 07:28:16;;;;;;;7.22;4.28;;;;;;;;;;5049020;28;20024;-69
2022/01/28 07:30:41;;;;;;;6.97;4.60;;;;;;;;;;5056489;28;20040;-70
2022/01/28 07:33:08;;;;;;;12.15;4.53;;;;;;;;;;5036613;28;20039;-70
2022/01/28 07:35:33;;;;;;;5.78;3.70;;;;;;;;;;5048825;28;20033;-70
2022/01/28 07:37:59;;;;;;;7.97;4.00;;;;;;;;;;5062078;28;20134;-69
2022/01/28 07:40:24;;;;;;;6.20;4.35;;;;;;;;;;5043776;28;20415;-70
2022/01/28 07:42:49;;;;;;;7.10;4.30;;;;;;;;;;5035957;28;20364;-70
2022/01/28 07:45:15;;;;;;;9.38;4.38;;;;;;;;;;5063994;28;20082;-69
2022/01/28 07:47:40;;;;;;;8.68;4.30;;;;;;;;;;5039430;28;20036;-70
2022/01/28 07:50:07;;;;;;;6.25;3.78;;;;;;;;;;5057219;28;20083;-70
2022/01/28 07:52:32;;;;;;;6.25;4.18;;;;;;;;;;5040304;28;20063;-70
2022/01/28 07:54:57;;;;;;;7.65;4.22;;;;;;;;;;5037438;28;20056;-70
2022/01/28 07:57:23;;;;;;;8.75;4.88;;;;;;;;;;5051689;28;20094;-70
2022/01/28 07:59:48;;;;;;;7.72;3.70;;;;;;;;;;5039952;28;20485;-69
2022/01/28 08:02:14;;;;;;;7.05;4.50;;;;;;;;;;5033872;28;20044;-70
2022/01/28 08:04:40;;;;;;;8.73;4.20;;;;;;;;;;5053295;28;20040;-70
2022/01/28 08:07:05;;;;;;;8.23;4.43;;;;;;;;;;5041851;28;20031;-70
2022/01/28 08:09:30;;;;;;;10.25;4.47;;;;;;;;;;5052197;28;20474;-69
2022/01/28 08:11:56;;;;;;;7.32;4.20;;;;;;;;;;5059654;28;20033;-69
2022/01/28 08:14:21;;;;;;;7.00;4.18;;;;;;;;;;5056608;28;20039;-70
2022/01/28 08:16:46;;;;;;;8.77;5.18;;;;;;;;;;5060498;28;20390;-70
2022/01/28 08:19:12;;;;;;;6.93;4.40;;;;;;;;;;5055783;28;20414;-70
2022/01/28 08:21:37;;;;;;;13.38;5.43;;;;;;;;;;5051731;28;20033;-70
2022/01/28 08:24:02;;;;;;;10.00;5.07;;;;;;;;;;5051614;28;20052;-71
2022/01/28 08:26:28;;;;;;;8.13;5.07;;;;;;;;;;5043041;28;20060;-70
2022/01/28 08:28:53;;;;;;;7.68;4.82;;;;;;;;;;5040004;28;20028;-70
2022/01/28 08:31:19;;;;;;;10.60;5.43;;;;;;;;;;5057800;28;20082;-70
2022/01/28 08:33:44;;;;;;;7.85;5.07;;;;;;;;;;5038551;28;20025;-70
2022/01/28 08:36:09;;;;;;;11.13;5.15;;;;;;;;;;5053795;28;20029;-70
2022/01/28 08:38:44;;;;;;;13.30;5.78;;;;;;;;;;5023393;28;20104;-71
2022/01/28 08:41:11;;;;;;;;;;;;;;;;;;5034766;28;20021;-70
2022/01/28 08:43:36;;;;;;;6.43;4.05;;;;;;;;;;5058131;28;19918;-70
2022/01/28 08:46:02;;;;;;;6.68;4.78;;;;;;;;;;5050195;28;20119;-70
2022/01/28 08:48:28;;;;;;;6.97;4.80;;;;;;;;;;5040845;28;20025;-70
2022/01/28 08:50:53;;;;;;;9.23;5.18;;;;;;;;;;5057747;28;20033;-70
2022/01/28 08:53:18;;;;;;;9.63;5.03;;;;;;;;;;5056566;28;20024;-70
2022/01/28 08:55:44;;;;;;;9.35;4.82;;;;;;;;;;5045606;28;20115;-70
2022/01/28 08:58:09;;;;;;;7.82;4.80;;;;;;;;;;5038713;28;20021;-70
2022/01/28 09:00:35;;;;;;;11.02;5.22;;;;;;;;;;5041037;28;20036;-69
2022/01/28 09:03:00;;;;;;;9.38;4.93;;;;;;;;;;5052023;28;20037;-70
2022/01/28 09:05:25;;;;;;;8.13;4.65;;;;;;;;;;5059038;28;20047;-70
2022/01/28 09:07:51;;;;;;;6.57;4.45;;;;;;;;;;5020375;28;20029;-70
2022/01/28 09:10:23;;;;;;;7.72;4.70;;;;;;;;;;5042666;28;20371;-70
2022/01/28 09:13:10;;;;;;;6.53;4.30;;;;;;;;;;5059846;28;20029;-70
2022/01/28 09:15:36;;;;;;;5.75;4.32;;;;;;;;;;5060215;28;20064;-69
2022/01/28 09:18:01;;;;;;;7.18;4.55;;;;;;;;;;5040645;28;20017;-70
2022/01/28 09:20:30;;;;;;;8.05;4.68;;;;;;;;;;5037717;28;20079;-69
2022/01/28 09:22:59;;;;;;;10.57;4.50;;;;;;;;;;5061344;28;20086;-70
2022/01/28 09:25:24;;;;;;;9.38;4.68;;;;;;;;;;5037608;28;20542;-70
2022/01/28 09:27:50;;;;;;;7.00;4.60;;;;;;;;;;5042450;28;20424;-70
2022/01/28 09:30:15;;;;;;;7.43;4.55;;;;;;;;;;5057474;28;20032;-70
2022/01/28 09:32:41;;;;;;;7.63;4.50;;;;;;;;;;5026018;28;20044;-70
2022/01/28 09:35:07;;;;;;;7.47;3.60;;;;;;;;;;5057733;28;20025;-70
2022/01/28 09:37:34;;;;;;;5.07;3.92;;;;;;;;;;5037652;28;20119;-70
2022/01/28 09:39:59;;;;;;;10.00;4.75;;;;;;;;;;5062037;28;20035;-70
2022/01/28 09:42:28;;;;;;;7.43;4.95;;;;;;;;;;5061802;28;20028;-70
2022/01/28 09:44:54;;;;;;;8.35;4.72;;;;;;;;;;5046407;28;20033;-70
2022/01/28 09:47:19;;;;;;;6.65;3.97;;;;;;;;;;5059238;28;20035;-70
2022/01/28 09:49:45;;;;;;;9.13;4.20;;;;;;;;;;5046088;28;20033;-70
2022/01/28 09:52:11;;;;;;;6.57;4.22;;;;;;;;;;5047462;28;20039;-70
2022/01/28 09:54:36;;;;;;;6.43;3.90;;;;;;;;;;5043019;28;20061;-70
2022/01/28 09:57:03;;;;;;;7.20;4.20;;;;;;;;;;5034918;28;20071;-70
2022/01/28 09:59:28;;;;;;;7.28;4.10;;;;;;;;;;5041408;28;20113;-70
2022/01/28 10:01:54;;;;;;;5.82;3.70;;;;;;;;;;5060683;28;20115;-70
2022/01/28 10:04:19;;;;;;;8.30;4.03;;;;;;;;;;5042979;28;20099;-70
2022/01/28 10:06:45;;;;;;;6.65;4.18;;;;;;;;;;5047004;28;20031;-70
2022/01/28 10:09:11;;;;;;;8.20;3.50;;;;;;;;;;5044737;28;20591;-70
2022/01/28 10:11:38;;;;;;;7.63;3.63;;;;;;;;;;5043600;28;20146;-70
2022/01/28 10:14:14;;;;;;;5.15;3.28;;;;;;;;;;5058427;28;20029;-70
2022/01/28 10:16:39;;;;;;;4.18;3.20;;;;;;;;;;5066074;28;20070;-70
2022/01/28 10:19:09;;;;;;;6.43;3.20;;;;;;;;;;5049462;28;20394;-70
2022/01/28 10:21:37;;;;;;;4.05;2.88;;;;;;;;;;5050323;28;20031;-70
2022/01/28 10:24:16;;;;;;;4.05;3.17;;;;;;;;;;5050112;28;20183;-70
2022/01/28 10:26:48;;;;;;;5.63;3.05;;;;;;;;;;5025366;28;20032;-70
2022/01/28 10:29:25;;;;;;;4.43;3.33;;;;;;;;;;5044281;28;20021;-70
2022/01/28 10:31:56;;;;;;;7.88;4.13;;;;;;;;;;5045721;28;20111;-71
2022/01/28 10:34:22;;;;;;;8.65;3.92;;;;;;;;;;5058671;28;20032;-70
2022/01/28 10:36:48;;;;;;;10.18;4.47;;;;;;;;;;5055302;28;20032;-70
2022/01/28 10:39:15;;;;;;;6.82;3.92;;;;;;;;;;5014313;28;20025;-70
2022/01/28 10:41:57;;;;;;;7.90;4.05;;;;;;;;;;5048387;28;20079;-70
2022/01/28 10:44:24;;;;;;;6.38;4.13;;;;;;;;;;5030390;28;20033;-70
2022/01/28 10:46:52;;;;;;;4.97;3.53;;;;;;;;;;5028877;28;20025;-69
2022/01/28 10:49:17;;;;;;;6.15;4.20;;;;;;;;;;5013246;28;20035;-69
2022/01/28 10:51:44;;;;;;;8.20;3.97;;;;;;;;;;5048128;28;20036;-69
2022/01/28 10:54:11;;;;;;;4.22;3.17;;;;;;;;;;5009149;28;20055;-69
2022/01/28 10:56:51;;;;;;;8.43;3.78;;;;;;;;;;5030566;28;20068;-70
2022/01/28 10:59:18;;;;;;;4.80;3.70;;;;;;;;;;5049168;28;20078;-69
2022/01/28 11:01:44;;;;;;;5.57;3.38;;;;;;;;;;5046299;28;20077;-69
2022/01/28 11:04:13;;;;;;;8.60;3.90;;;;;;;;;;5021715;28;20020;-68
2022/01/28 11:06:42;;;;;;;14.82;3.55;;;;;;;;;;5013656;28;20041;-70
2022/01/28 11:09:08;;;;;;;6.97;3.60;;;;;;;;;;5029150;28;20037;-70
2022/01/28 11:11:33;;;;;;;7.85;3.97;;;;;;;;;;5030463;28;20055;-71
2022/01/28 11:13:59;;;;;;;6.88;3.80;;;;;;;;;;5013327;28;20033;-72
2022/01/28 11:16:25;;;;;;;6.07;4.25;;;;;;;;;;5013133;28;20500;-71
2022/01/28 11:18:50;;;;;;;6.97;3.65;;;;;;;;;;5029007;28;20029;-71
2022/01/28 11:21:17;;;;;;;6.68;3.80;;;;;;;;;;5015374;28;20039;-70
2022/01/28 11:23:52;;;;;;;9.88;4.05;;;;;;;;;;5014954;28;20072;-71
2022/01/28 11:26:27;;;;;;;6.10;3.47;;;;;;;;;;5030491;28;20152;-72
2022/01/28 11:29:02;;;;;;;8.27;4.15;;;;;;;;;;5015664;28;20554;-70
2022/01/28 11:31:44;;;;;;;7.95;4.57;;;;;;;;;;5028134;28;20044;-70
2022/01/28 11:34:18;;;;;;;6.28;4.05;;;;;;;;;;5014165;28;20039;-71
2022/01/28 11:36:44;;;;;;;7.00;3.60;;;;;;;;;;5048219;28;20029;-70
2022/01/28 11:39:46;;;;;;;6.35;3.55;;;;;;;;;;5015202;28;20079;-71
2022/01/28 11:42:13;;;;;;;8.68;3.63;;;;;;;;;;4988201;28;20075;-69
2022/01/28 11:44:44;;;;;;;7.55;3.80;;;;;;;;;;5031610;28;20036;-70
2022/01/28 11:47:11;;;;;;;6.25;3.60;;;;;;;;;;5048987;28;20036;-70
2022/01/28 11:50:05;;;;;;;5.78;3.00;;;;;;;;;;5048517;28;20033;-71
2022/01/28 11:52:32;;;;;;;5.45;3.38;;;;;;;;;;5048850;28;20037;-70
2022/01/28 11:55:16;;;;;;;6.72;3.50;;;;;;;;;;5029916;28;20112;-70
2022/01/28 11:58:04;;;;;;;4.85;3.60;;;;;;;;;;5046862;28;20132;-70
2022/01/28 12:00:58;;;;;;;5.75;3.70;;;;;;;;;;5029266;28;20037;-70
2022/01/28 12:03:24;;;;;;;5.20;3.70;;;;;;;;;;5034791;28;20033;-71
2022/01/28 12:05:56;;;;;;;6.13;4.45;;;;;;;;;;5030580;28;20568;-70
2022/01/28 12:08:21;;;;;;;6.75;4.07;;;;;;;;;;5031077;28;20057;-70
2022/01/28 12:10:49;;;;;;;9.05;4.97;;;;;;;;;;5030726;28;20501;-70
2022/01/28 12:13:17;;;;;;;9.85;4.35;;;;;;;;;;5031162;28;20051;-71
2022/01/28 12:16:03;;;;;;;8.20;4.68;;;;;;;;;;5031012;28;20107;-70
2022/01/28 12:18:44;;;;;;;6.50;4.28;;;;;;;;;;5049339;28;20087;-70
2022/01/28 12:21:12;;;;;;;5.78;3.90;;;;;;;;;;5048825;28;20021;-70
2022/01/28 12:23:38;;;;;;;5.05;3.83;;;;;;;;;;5030430;28;20025;-71
2022/01/28 12:26:03;;;;;;;4.88;3.80;;;;;;;;;;5028885;28;20549;-70
2022/01/28 12:28:31;;;;;;;5.13;3.70;;;;;;;;;;5043137;28;20245;-70
2022/01/28 12:31:01;;;;;;;6.53;3.95;;;;;;;;;;5044821;28;20044;-70
2022/01/28 12:33:31;;;;;;;6.72;3.65;;;;;;;;;;5047564;28;20494;-70
2022/01/28 12:35:58;;;;;;;8.20;4.18;;;;;;;;;;5008823;28;20032;-71
2022/01/28 12:38:26;;;;;;;5.00;3.70;;;;;;;;;;5047284;28;20463;-70
2022/01/28 12:40:54;;;;;;;8.95;4.45;;;;;;;;;;4994452;28;20163;-71
2022/01/28 12:43:20;;;;;;;8.13;4.05;;;;;;;;;;5029138;28;20115;-70
2022/01/28 12:45:55;;;;;;;7.15;3.90;;;;;;;;;;5026241;28;20058;-70
2022/01/28 12:48:20;;;;;;;5.32;3.92;;;;;;;;;;5030116;28;20021;-70
2022/01/28 12:50:50;;;;;;;6.50;3.55;;;;;;;;;;5029683;28;20434;-71
2022/01/28 12:53:35;;;;;;;5.47;3.40;;;;;;;;;;5028226;28;20553;-69
2022/01/28 12:56:01;;;;;;;4.32;3.03;;;;;;;;;;5028495;28;20017;-70
2022/01/28 12:58:50;;;;;;;4.90;3.13;;;;;;;;;;5046094;28;20044;-70
2022/01/28 13:01:19;;;;;;;4.88;3.30;;;;;;;;;;5046052;28;20511;-70
2022/01/28 13:03:52;;;;;;;5.53;3.10;;;;;;;;;;5028136;28;20067;-69
2022/01/28 13:06:26;;;;;;;3.07;2.57;;;;;;;;;;5029997;28;20120;-71
2022/01/28 13:08:51;;;;;;;5.23;3.20;;;;;;;;;;5030463;28;20391;-70
2022/01/28 13:11:17;;;;;;;4.07;2.85;;;;;;;;;;5031108;28;20284;-70
2022/01/28 13:13:53;;;;;;;5.95;3.33;;;;;;;;;;5051798;28;20490;-70
2022/01/28 13:16:31;;;;;;;5.07;3.10;;;;;;;;;;5034611;28;20032;-70
2022/01/28 13:19:00;;;;;;;4.65;2.78;;;;;;;;;;5050743;28;20372;-70
2022/01/28 13:21:26;;;;;;;6.85;2.50;;;;;;;;;;5015134;28;20025;-70
2022/01/28 13:24:11;;;;;;;5.50;3.13;;;;;;;;;;5028785;28;20079;-71
2022/01/28 13:26:51;;;;;;;2.85;2.47;;;;;;;;;;5030206;28;20027;-70
2022/01/28 13:29:16;;;;;;;5.68;2.70;;;;;;;;;;5017621;28;20469;-70
2022/01/28 13:31:42;;;;;;;5.40;2.38;;;;;;;;;;5050345;28;20073;-70
2022/01/28 13:34:10;;;;;;;4.07;2.58;;;;;;;;;;5050835;28;20021;-70
2022/01/28 13:36:43;;;;;;;3.22;2.53;;;;;;;;;;5049850;28;20060;-72
2022/01/28 13:39:16;;;;;;;6.53;2.50;;;;;;;;;;5050763;28;20059;-70
2022/01/28 13:41:41;;;;;;;5.35;3.03;;;;;;;;;;5033595;28;20021;-70
2022/01/28 13:44:25;;;;;;;4.10;2.28;;;;;;;;;;5033771;28;20021;-68
2022/01/28 13:46:57;;;;;;;3.65;2.72;;;;;;;;;;5032887;28;20032;-70
2022/01/28 13:49:33;;;;;;;3.20;2.40;;;;;;;;;;5050095;28;20556;-69
2022/01/28 13:52:06;;;;;;;4.80;2.97;;;;;;;;;;5033075;28;20472;-70
2022/01/28 13:54:31;;;;;;;7.30;2.58;;;;;;;;;;5048848;28;20052;-70
2022/01/28 13:57:01;;;;;;;3.10;2.38;;;;;;;;;;5048586;28;20025;-70
2022/01/28 13:59:29;;;;;;;4.72;2.75;;;;;;;;;;5049124;28;20060;-71
2022/01/28 14:01:56;;;;;;;4.03;2.63;;;;;;;;;;5031987;28;20087;-71
2022/01/28 14:04:23;;;;;;;5.65;2.80;;;;;;;;;;5031754;28;20102;-71
2022/01/28 14:06:48;;;;;;;5.18;2.90;;;;;;;;;;5033430;28;20079;-71
2022/01/28 14:09:17;;;;;;;5.22;3.15;;;;;;;;;;5032797;28;20036;-71
2022/01/28 14:11:52;;;;;;;5.18;2.67;;;;;;;;;;5033080;28;20024;-70
2022/01/28 14:14:32;;;;;;;4.90;2.88;;;;;;;;;;5029749;28;20458;-71
2022/01/28 14:16:59;;;;;;;5.88;2.78;;;;;;;;;;5049025;28;20331;-71
2022/01/28 14:19:26;;;;;;;4.68;2.65;;;;;;;;;;5014117;28;20024;-70
2022/01/28 14:21:51;;;;;;;3.38;2.33;;;;;;;;;;5032006;28;20025;-70
2022/01/28 14:24:30;;;;;;;3.60;2.47;;;;;;;;;;5014234;28;20060;-71
2022/01/28 14:31:47;;;;;;;4.32;2.72;;;;;;;;;;5025325;28;20558;-71
2022/01/28 14:34:13;;;;;;;3.25;2.17;;;;;;;;;;5028396;28;20059;-69
2022/01/28 14:36:40;;;;;;;4.40;2.95;;;;;;;;;;5027164;28;20036;-70
2022/01/28 14:39:07;;;;;;;5.45;2.72;;;;;;;;;;5040263;28;20402;-69
2022/01/28 14:41:32;;;;;;;6.00;2.55;;;;;;;;;;5012811;28;20025;-71
2022/01/28 14:43:58;;;;;;;5.60;3.08;;;;;;;;;;5027151;28;20777;-71
2022/01/28 14:46:25;;;;;;;3.63;2.60;;;;;;;;;;5039470;28;20142;-71
2022/01/28 14:48:50;;;;;;;10.93;3.08;;;;;;;;;;5043357;28;20029;-70
2022/01/28 14:51:16;;;;;;;4.97;3.40;;;;;;;;;;5046169;28;20285;-70
2022/01/28 14:53:41;;;;;;;6.20;3.00;;;;;;;;;;5013849;28;20085;-70
2022/01/28 14:56:07;;;;;;;4.40;2.60;;;;;;;;;;5013524;28;20052;-71
2022/01/28 14:58:32;;;;;;;6.22;3.10;;;;;;;;;;5045768;28;20087;-70
2022/01/28 15:00:58;;;;;;;4.85;2.92;;;;;;;;;;5046771;28;20513;-70
2022/01/28 15:03:23;;;;;;;6.28;3.30;;;;;;;;;;5047837;28;20116;-71
2022/01/28 15:05:48;;;;;;;4.20;2.95;;;;;;;;;;5049072;28;20219;-70
2022/01/28 15:08:13;;;;;;;5.45;2.78;;;;;;;;;;5031122;28;20111;-70
2022/01/28 15:10:40;;;;;;;7.82;2.92;;;;;;;;;;5031422;28;20131;-71
2022/01/28 15:13:05;;;;;;;4.93;3.03;;;;;;;;;;5014415;28;20029;-70
2022/01/28 15:15:31;;;;;;;4.72;3.22;;;;;;;;;;5030483;28;20063;-70
2022/01/28 15:17:56;;;;;;;6.95;3.13;;;;;;;;;;5030421;28;21033;-71
2022/01/28 15:20:24;;;;;;;5.80;3.15;;;;;;;;;;5013768;28;20541;-72
2022/01/28 15:22:49;;;;;;;5.43;3.65;;;;;;;;;;5029843;28;20048;-71
2022/01/28 15:25:14;;;;;;;7.28;3.65;;;;;;;;;;5049262;28;20054;-71
2022/01/28 15:27:45;;;;;;;5.10;3.33;;;;;;;;;;5046760;28;20025;-69
2022/01/28 15:34:14;;;;;;;6.95;3.80;;;;;;;;;;5046751;28;20558;-70
2022/01/28 15:38:14;;;;;;;5.05;2.92;;;;;;;;;;5048361;28;20063;-70
2022/01/28 15:40:40;;;;;;;7.82;3.42;;;;;;;;;;5012579;28;20487;-70
2022/01/28 15:43:05;;;;;;;6.10;3.72;;;;;;;;;;5049231;28;20048;-71
2022/01/28 15:45:31;;;;;;;6.60;3.45;;;;;;;;;;5028574;28;20800;-71
2022/01/28 15:47:58;;;;;;;5.47;3.47;;;;;;;;;;5012857;28;20021;-71
2022/01/28 15:50:24;;;;;;;6.90;3.90;;;;;;;;;;5010207;28;20021;-71
2022/01/28 15:52:49;;;;;;;8.20;4.10;;;;;;;;;;5044400;28;20040;-71
2022/01/28 15:55:17;;;;;;;7.45;4.10;;;;;;;;;;5025202;28;20017;-70
2022/01/28 15:57:43;;;;;;;5.18;3.25;;;;;;;;;;5009526;28;20127;-70
2022/01/28 16:00:09;;;;;;;4.57;3.33;;;;;;;;;;5022451;28;20033;-71
2022/01/28 16:02:34;;;;;;;7.65;4.15;;;;;;;;;;5025373;28;20061;-70
2022/01/28 16:05:01;;;;;;;6.70;4.25;;;;;;;;;;5011587;28;20561;-70
2022/01/28 16:07:26;;;;;;;7.72;4.20;;;;;;;;;;5032091;28;20483;-71
2022/01/28 16:09:56;;;;;;;9.23;4.65;;;;;;;;;;5029698;28;20024;-71
2022/01/28 16:17:07;;;;;;;6.97;3.95;;;;;;;;;;5044769;28;20032;-70
2022/01/28 16:18:04;;;;;;;9.65;4.50;;;;;;;;;;5021929;28;20040;-70
2022/01/28 16:20:30;;;;;;;10.82;5.22;;;;;;;;;;5030673;28;20029;-71
2022/01/28 16:22:56;;;;;;;8.32;4.57;;;;;;;;;;5044677;28;20037;-71
2022/01/28 16:25:21;;;;;;;12.15;6.05;;;;;;;;;;5046598;28;20344;-71